Time;durP1;ratioP1;P1;durP2;ratioP2;P2;SDS_P1;SDS_P2;PMS_P1;PMS_P2;Temp;Humidity;BMP_temperature;BMP_pressure;BME280_temperature;BME280_humidity;BME280_pressure;Samples;Min_cycle;Max_cycle;Signal;HPM_P1;HPM_P2
2022/09/27 00:00:35;;;;;;;3.28;1.77;;;14.20;99.90;;;;;;5074575;28;20039;-82
2022/09/27 00:03:01;;;;;;;3.88;1.83;;;14.20;99.90;;;;;;5075188;28;20029;-82
2022/09/27 00:05:27;;;;;;;3.63;1.65;;;14.20;99.90;;;;;;5075014;28;20021;-82
2022/09/27 00:07:52;;;;;;;2.35;1.70;;;14.10;99.90;;;;;;5074524;28;20354;-82
2022/09/27 00:10:18;;;;;;;1.58;1.48;;;14.00;99.90;;;;;;5075157;28;20039;-82
2022/09/27 00:12:44;;;;;;;3.50;1.40;;;14.00;99.90;;;;;;5074815;28;20542;-82
2022/09/27 00:15:10;;;;;;;3.20;1.75;;;14.20;99.90;;;;;;5074717;28;20047;-82
2022/09/27 00:17:37;;;;;;;2.08;1.52;;;14.00;99.90;;;;;;5074700;28;20469;-82
2022/09/27 00:20:05;;;;;;;2.38;1.65;;;14.00;99.90;;;;;;5074647;28;20044;-82
2022/09/27 00:22:31;;;;;;;1.95;1.60;;;14.00;99.90;;;;;;5074112;28;20082;-82
2022/09/27 00:24:56;;;;;;;3.67;1.67;;;14.00;99.90;;;;;;5074588;28;20024;-82
2022/09/27 00:27:23;;;;;;;2.13;1.80;;;14.20;99.90;;;;;;5074857;28;20025;-82
2022/09/27 00:29:49;;;;;;;1.75;1.60;;;14.30;99.90;;;;;;5073971;28;20082;-82
2022/09/27 00:32:15;;;;;;;1.65;1.40;;;14.20;99.90;;;;;;5074136;28;20045;-82
2022/09/27 00:34:41;;;;;;;1.42;1.30;;;14.10;99.90;;;;;;5074531;28;20127;-82
2022/09/27 00:37:08;;;;;;;2.70;1.50;;;14.30;99.90;;;;;;5074247;28;20012;-82
2022/09/27 00:39:34;;;;;;;2.33;1.40;;;14.20;99.90;;;;;;5074890;28;20029;-82
2022/09/27 00:41:59;;;;;;;1.77;1.40;;;14.30;99.90;;;;;;5073927;28;20511;-82
2022/09/27 00:44:28;;;;;;;1.50;1.40;;;14.30;99.90;;;;;;5074118;28;20540;-82
2022/09/27 00:47:08;;;;;;;3.85;1.60;;;14.60;99.90;;;;;;5073983;28;20094;-82
2022/09/27 00:49:49;;;;;;;2.40;1.50;;;14.60;99.90;;;;;;5074531;28;20134;-82
2022/09/27 00:52:26;;;;;;;3.05;2.00;;;14.50;99.90;;;;;;5073651;28;20036;-82
2022/09/27 00:55:00;;;;;;;4.93;2.40;;;14.50;99.90;;;;;;5073938;28;20028;-82
2022/09/27 00:57:26;;;;;;;2.65;2.20;;;14.00;99.90;;;;;;5073984;28;20436;-82
2022/09/27 00:59:59;;;;;;;5.43;2.20;;;13.90;99.90;;;;;;5073534;28;20036;-82
2022/09/27 01:02:25;;;;;;;2.35;2.08;;;13.90;99.90;;;;;;5073779;28;20021;-82
2022/09/27 01:04:52;;;;;;;3.70;1.95;;;14.20;99.90;;;;;;5073971;28;20032;-82
2022/09/27 01:07:17;;;;;;;2.75;1.92;;;14.00;99.90;;;;;;5073645;28;20310;-82
2022/09/27 01:09:43;;;;;;;3.30;2.10;;;14.00;99.90;;;;;;5074135;28;20032;-82
2022/09/27 01:12:34;;;;;;;3.13;2.03;;;14.10;99.90;;;;;;5073684;28;20147;-83
2022/09/27 01:15:06;;;;;;;3.60;1.83;;;14.10;99.90;;;;;;5074175;28;20021;-82
2022/09/27 01:18:04;;;;;;;4.00;2.10;;;14.20;99.90;;;;;;5073654;28;20025;-82
2022/09/27 01:20:59;;;;;;;3.53;2.25;;;13.80;99.90;;;;;;5073481;28;20020;-82
2022/09/27 01:23:36;;;;;;;4.40;2.78;;;13.30;99.90;;;;;;5074370;28;20024;-82
2022/09/27 01:26:14;;;;;;;5.68;2.75;;;13.70;99.90;;;;;;5073583;28;20055;-82
2022/09/27 01:29:36;;;;;;;3.50;2.40;;;13.90;99.90;;;;;;5073896;28;20037;-82
2022/09/27 01:32:20;;;;;;;4.13;2.70;;;14.20;99.90;;;;;;5031467;28;20053;-82
2022/09/27 01:35:01;;;;;;;4.63;2.60;;;14.10;99.90;;;;;;5031312;28;20067;-82
2022/09/27 01:37:56;;;;;;;3.50;2.60;;;14.10;99.90;;;;;;5031242;28;20042;-82
2022/09/27 01:40:36;;;;;;;3.60;2.85;;;14.10;99.90;;;;;;5031389;28;20041;-82
2022/09/27 01:43:16;;;;;;;2.50;2.30;;;14.10;99.90;;;;;;5030840;28;20498;-82
2022/09/27 01:45:50;;;;;;;3.58;2.40;;;14.10;99.90;;;;;;5031039;28;20029;-82
2022/09/27 01:48:23;;;;;;;3.70;2.30;;;14.00;99.90;;;;;;5031297;28;20029;-82
2022/09/27 01:51:07;;;;;;;3.63;2.40;;;14.10;99.90;;;;;;5031204;28;20594;-82
2022/09/27 01:53:40;;;;;;;2.47;2.25;;;14.10;99.90;;;;;;5030150;28;20105;-82
2022/09/27 01:56:12;;;;;;;2.70;2.35;;;14.10;99.90;;;;;;5031266;28;20486;-82
2022/09/27 01:58:45;;;;;;;3.00;2.47;;;14.20;99.90;;;;;;5031257;28;20473;-82
2022/09/27 02:01:13;;;;;;;2.42;2.17;;;14.20;99.90;;;;;;5030345;28;20040;-82
2022/09/27 02:03:43;;;;;;;4.03;2.17;;;14.10;99.90;;;;;;5066462;28;20044;-82
2022/09/27 02:06:32;;;;;;;4.78;2.22;;;14.20;99.90;;;;;;5072808;28;20097;-82
2022/09/27 02:09:28;;;;;;;2.95;2.53;;;14.00;99.90;;;;;;5072783;28;20025;-82
2022/09/27 02:12:01;;;;;;;3.83;2.42;;;14.00;99.90;;;;;;5072989;28;20122;-82
2022/09/27 02:14:29;;;;;;;3.03;2.50;;;14.40;99.90;;;;;;5073064;28;20124;-82
2022/09/27 02:17:36;;;;;;;5.22;2.35;;;14.60;99.90;;;;;;5072870;28;20024;-82
2022/09/27 02:20:02;;;;;;;3.72;2.13;;;14.00;99.90;;;;;;5072768;28;20033;-82
2022/09/27 02:22:49;;;;;;;3.88;2.30;;;14.60;99.90;;;;;;5073048;28;20044;-82
2022/09/27 02:25:29;;;;;;;4.10;2.72;;;14.10;99.90;;;;;;5072651;28;20025;-82
2022/09/27 02:28:19;;;;;;;2.88;2.30;;;14.20;99.90;;;;;;5072963;28;20120;-82
2022/09/27 02:30:44;;;;;;;2.60;2.30;;;14.10;99.90;;;;;;5072256;28;20090;-82
2022/09/27 02:33:10;;;;;;;3.65;2.60;;;14.10;99.90;;;;;;5072142;28;20036;-82
2022/09/27 02:35:36;;;;;;;3.20;2.40;;;14.00;99.90;;;;;;5072644;28;20040;-82
2022/09/27 02:38:05;;;;;;;4.53;2.30;;;14.00;99.90;;;;;;5072503;28;20036;-82
2022/09/27 02:40:33;;;;;;;3.20;1.90;;;14.00;99.90;;;;;;5072593;28;20043;-82
2022/09/27 02:43:00;;;;;;;3.65;1.88;;;14.20;99.90;;;;;;5072296;28;20027;-82
2022/09/27 02:45:44;;;;;;;4.35;2.15;;;13.80;99.90;;;;;;5072870;28;20048;-82
2022/09/27 02:48:38;;;;;;;3.22;1.90;;;13.90;99.90;;;;;;5071942;28;20021;-82
2022/09/27 02:51:15;;;;;;;4.93;2.03;;;13.90;99.90;;;;;;5072193;28;20064;-82
2022/09/27 02:53:59;;;;;;;4.82;2.40;;;13.70;99.90;;;;;;5072506;28;20086;-82
2022/09/27 02:56:39;;;;;;;4.78;2.25;;;13.70;99.90;;;;;;5072377;28;20477;-82
2022/09/27 02:59:31;;;;;;;7.40;2.20;;;13.80;99.90;;;;;;5072811;28;20388;-82
2022/09/27 03:02:07;;;;;;;4.70;1.95;;;13.70;99.90;;;;;;5072140;28;20033;-81
2022/09/27 03:04:57;;;;;;;3.65;2.10;;;13.50;99.90;;;;;;5073085;28;20515;-82
2022/09/27 03:07:23;;;;;;;5.22;2.13;;;13.40;99.90;;;;;;5076354;28;20027;-82
2022/09/27 03:09:51;;;;;;;5.80;2.22;;;13.40;99.90;;;;;;5076124;28;20032;-81
2022/09/27 03:12:21;;;;;;;3.65;2.10;;;13.40;99.90;;;;;;5075997;28;20047;-82
2022/09/27 03:14:48;;;;;;;3.53;2.35;;;13.50;99.90;;;;;;5076061;28;20032;-82
2022/09/27 03:17:14;;;;;;;4.60;2.38;;;13.40;99.90;;;;;;5075792;28;20024;-82
2022/09/27 03:19:39;;;;;;;3.58;2.08;;;13.40;99.90;;;;;;5076001;28;20554;-81
2022/09/27 03:22:05;;;;;;;5.28;2.15;;;13.50;99.90;;;;;;5076409;28;20033;-82
2022/09/27 03:24:31;;;;;;;4.22;2.45;;;13.50;99.90;;;;;;5075421;28;20040;-82
2022/09/27 03:26:57;;;;;;;5.90;2.40;;;13.80;99.90;;;;;;5076162;28;20055;-82
2022/09/27 03:29:22;;;;;;;4.57;2.38;;;13.60;99.90;;;;;;5076352;28;20098;-81
2022/09/27 03:31:48;;;;;;;4.50;2.50;;;13.90;99.90;;;;;;5074832;28;20052;-82
2022/09/27 03:34:13;;;;;;;6.40;2.33;;;13.80;99.90;;;;;;5075693;28;20121;-81
2022/09/27 03:36:39;;;;;;;4.93;2.42;;;13.90;99.90;;;;;;5076047;28;20521;-82
2022/09/27 03:39:05;;;;;;;3.63;2.67;;;13.60;99.90;;;;;;5076039;28;20362;-82
2022/09/27 03:41:30;;;;;;;7.18;2.70;;;13.90;99.90;;;;;;5075563;28;20108;-82
2022/09/27 03:43:58;;;;;;;7.40;2.50;;;13.40;99.90;;;;;;5075403;28;20031;-82
2022/09/27 03:46:24;;;;;;;4.82;2.50;;;13.40;99.90;;;;;;5075907;28;20115;-81
2022/09/27 03:48:50;;;;;;;6.22;2.60;;;13.60;99.90;;;;;;5074254;28;20024;-82
2022/09/27 03:51:15;;;;;;;4.95;2.55;;;13.40;99.90;;;;;;5075212;28;20035;-82
2022/09/27 03:53:41;;;;;;;6.63;2.70;;;13.40;99.90;;;;;;5075910;28;20501;-82
2022/09/27 03:56:07;;;;;;;6.07;2.42;;;13.50;99.90;;;;;;5075011;28;20024;-82
2022/09/27 03:58:33;;;;;;;5.53;2.58;;;13.50;99.90;;;;;;5075424;28;20395;-81
2022/09/27 04:00:59;;;;;;;6.65;2.40;;;13.20;99.90;;;;;;5073491;28;20028;-82
2022/09/27 04:03:25;;;;;;;3.90;2.20;;;13.20;99.90;;;;;;5075466;28;20020;-82
2022/09/27 04:05:52;;;;;;;6.13;2.25;;;13.10;99.90;;;;;;5075330;28;20488;-82
2022/09/27 04:08:18;;;;;;;5.75;2.58;;;13.00;99.90;;;;;;5075192;28;20056;-82
2022/09/27 04:10:44;;;;;;;3.72;2.15;;;13.30;99.90;;;;;;5075454;28;20326;-82
2022/09/27 04:13:10;;;;;;;3.85;2.30;;;13.10;99.90;;;;;;5074813;28;20128;-82
2022/09/27 04:15:38;;;;;;;2.92;2.20;;;13.20;99.90;;;;;;5074253;28;20052;-82
2022/09/27 04:18:04;;;;;;;3.42;2.38;;;13.60;99.90;;;;;;5074264;28;20107;-82
2022/09/27 04:20:30;;;;;;;5.53;2.70;;;13.40;99.90;;;;;;5074802;28;20036;-81
2022/09/27 04:22:55;;;;;;;5.88;2.55;;;13.50;99.90;;;;;;5075501;28;20055;-81
2022/09/27 04:25:21;;;;;;;5.03;2.53;;;13.50;99.90;;;;;;5074782;28;20096;-81
2022/09/27 04:27:47;;;;;;;3.40;2.10;;;13.80;99.90;;;;;;5074808;28;20100;-82
2022/09/27 04:30:14;;;;;;;3.75;2.40;;;13.50;99.90;;;;;;5074412;28;20484;-81
2022/09/27 04:32:41;;;;;;;5.80;2.58;;;13.50;99.90;;;;;;5074536;28;20044;-82
2022/09/27 04:37:52;;;;;;;5.85;2.50;;;13.50;99.90;;;;;;5073475;28;20032;-82
2022/09/27 04:40:19;;;;;;;4.78;2.38;;;13.40;99.90;;;;;;5074127;28;20393;-82
2022/09/27 04:42:44;;;;;;;5.93;2.30;;;13.50;99.90;;;;;;5074387;28;20028;-81
2022/09/27 04:45:12;;;;;;;5.82;2.40;;;13.30;99.90;;;;;;5074186;28;20021;-81
2022/09/27 04:47:48;;;;;;;4.65;2.47;;;13.50;99.90;;;;;;5074029;28;20493;-82
2022/09/27 04:50:16;;;;;;;7.13;2.47;;;13.40;99.90;;;;;;5074099;28;20016;-82
2022/09/27 04:52:42;;;;;;;5.18;2.30;;;13.20;99.90;;;;;;5074296;28;20127;-81
2022/09/27 04:55:09;;;;;;;6.32;2.50;;;12.90;99.90;;;;;;5073995;28;20016;-82
2022/09/27 04:57:35;;;;;;;7.47;2.65;;;12.90;99.90;;;;;;5073759;28;20024;-82
2022/09/27 05:00:01;;;;;;;7.40;2.92;;;12.90;99.90;;;;;;5073682;28;20112;-82
2022/09/27 05:02:28;;;;;;;7.60;2.75;;;13.00;99.90;;;;;;5072978;28;20127;-81
2022/09/27 05:04:58;;;;;;;7.57;2.70;;;12.90;99.90;;;;;;5073618;28;20099;-81
2022/09/27 05:07:24;;;;;;;4.60;2.67;;;13.00;99.90;;;;;;5073761;28;20127;-82
2022/09/27 05:09:50;;;;;;;6.13;2.50;;;13.10;99.90;;;;;;5073574;28;20485;-82
2022/09/27 05:12:16;;;;;;;8.65;2.72;;;13.00;99.90;;;;;;5073483;28;20046;-82
2022/09/27 05:14:41;;;;;;;9.88;2.88;;;13.00;99.90;;;;;;5073650;28;20062;-81
2022/09/27 05:17:07;;;;;;;6.22;2.90;;;13.10;99.90;;;;;;5073462;28;20053;-82
2022/09/27 05:19:33;;;;;;;11.35;3.50;;;13.40;99.90;;;;;;5073205;28;20036;-82
2022/09/27 05:21:59;;;;;;;7.60;3.42;;;13.50;99.90;;;;;;5073578;28;20036;-82
2022/09/27 05:24:26;;;;;;;8.68;3.58;;;13.20;99.90;;;;;;5073261;28;20054;-81
2022/09/27 05:26:52;;;;;;;7.85;3.53;;;13.60;99.90;;;;;;5072653;28;20031;-82
2022/09/27 05:29:18;;;;;;;10.23;4.03;;;13.60;99.90;;;;;;5073337;28;20181;-82
2022/09/27 05:31:44;;;;;;;11.43;4.30;;;13.20;99.90;;;;;;5072936;28;20075;-81
2022/09/27 05:34:11;;;;;;;9.95;4.40;;;13.20;99.90;;;;;;5072928;28;20040;-82
2022/09/27 05:36:37;;;;;;;10.95;5.18;;;13.30;99.90;;;;;;5072898;28;20362;-82
2022/09/27 05:39:03;;;;;;;9.88;4.63;;;13.40;99.90;;;;;;5072816;28;20036;-82
2022/09/27 05:41:31;;;;;;;12.32;5.32;;;13.30;99.90;;;;;;5072730;28;20060;-82
2022/09/27 05:43:57;;;;;;;10.90;4.95;;;13.60;99.90;;;;;;5072907;28;20033;-82
2022/09/27 05:46:23;;;;;;;15.48;5.55;;;13.40;99.90;;;;;;5072609;28;20047;-81
2022/09/27 05:48:49;;;;;;;10.95;5.57;;;13.40;99.90;;;;;;5073055;28;20115;-82
2022/09/27 05:51:15;;;;;;;12.77;4.70;;;13.60;99.90;;;;;;5072740;28;20032;-85
2022/09/27 05:53:40;;;;;;;11.95;4.28;;;13.30;99.90;;;;;;5073055;28;20036;-84
2022/09/27 05:56:06;;;;;;;8.55;3.53;;;13.40;99.90;;;;;;5072670;28;20032;-85
2022/09/27 05:58:33;;;;;;;10.25;3.30;;;13.30;99.90;;;;;;5072733;28;20107;-85
2022/09/27 06:00:59;;;;;;;10.57;3.20;;;13.70;99.90;;;;;;5072379;28;20017;-85
2022/09/27 06:03:24;;;;;;;9.13;3.80;;;13.40;99.90;;;;;;5072556;28;20481;-82
2022/09/27 06:05:50;;;;;;;10.88;3.80;;;13.40;99.90;;;;;;5072760;28;20025;-83
2022/09/27 06:08:19;;;;;;;8.27;3.75;;;13.50;99.90;;;;;;5072495;28;20029;-83
2022/09/27 06:10:45;;;;;;;6.65;3.22;;;13.50;99.90;;;;;;5072139;28;20020;-84
2022/09/27 06:13:13;;;;;;;9.45;3.10;;;13.80;99.90;;;;;;5072311;28;20085;-83
2022/09/27 06:15:41;;;;;;;12.35;3.58;;;13.40;99.90;;;;;;5072155;28;20035;-83
2022/09/27 06:18:12;;;;;;;8.98;2.90;;;13.30;99.90;;;;;;5072231;28;20029;-83
2022/09/27 06:20:40;;;;;;;10.45;3.28;;;13.60;99.90;;;;;;5072591;28;20021;-83
2022/09/27 06:23:07;;;;;;;7.25;3.05;;;13.50;99.90;;;;;;5072194;28;20095;-83
2022/09/27 06:25:34;;;;;;;16.23;4.70;;;13.60;99.90;;;;;;5071948;28;20032;-83
2022/09/27 06:28:01;;;;;;;10.07;4.05;;;13.90;99.90;;;;;;5072146;28;20052;-83
2022/09/27 06:30:26;;;;;;;9.40;3.67;;;13.60;99.90;;;;;;5072203;28;20034;-83
2022/09/27 06:33:00;;;;;;;10.90;3.55;;;13.90;99.90;;;;;;5071929;28;20475;-83
2022/09/27 06:35:27;;;;;;;8.55;3.63;;;13.80;99.90;;;;;;5072599;28;20024;-83
2022/09/27 06:37:53;;;;;;;9.15;3.05;;;14.10;99.90;;;;;;5072043;28;20119;-83
2022/09/27 06:40:19;;;;;;;11.88;3.65;;;13.80;99.90;;;;;;5071223;28;20094;-83
2022/09/27 06:42:46;;;;;;;9.35;3.45;;;14.10;99.90;;;;;;5072247;28;20036;-83
2022/09/27 06:45:11;;;;;;;8.23;3.40;;;14.40;99.90;;;;;;5071993;28;20028;-83
2022/09/27 06:47:38;;;;;;;8.27;3.42;;;14.80;99.90;;;;;;5071895;28;20374;-83
2022/09/27 06:50:04;;;;;;;11.25;3.67;;;14.70;99.90;;;;;;5072023;28;20029;-83
2022/09/27 06:52:34;;;;;;;12.65;3.53;;;14.70;99.90;;;;;;5072337;28;20021;-83
2022/09/27 06:55:00;;;;;;;11.00;3.47;;;14.80;99.90;;;;;;5071750;28;20047;-83
2022/09/27 07:00:25;;;;;;;8.52;2.78;;;14.80;99.90;;;;;;5071845;28;20514;-83
2022/09/27 07:02:52;;;;;;;10.27;2.67;;;14.80;99.90;;;;;;5072206;28;20378;-83
2022/09/27 07:05:18;;;;;;;9.40;2.63;;;14.60;99.90;;;;;;5071938;28;20095;-83
2022/09/27 07:07:46;;;;;;;8.85;2.80;;;14.60;99.90;;;;;;5071494;28;20029;-83
2022/09/27 07:10:11;;;;;;;10.13;2.50;;;14.60;99.90;;;;;;5071741;28;20028;-83
2022/09/27 07:12:37;;;;;;;10.55;2.58;;;14.60;99.90;;;;;;5072307;28;20025;-83
2022/09/27 07:15:04;;;;;;;13.50;3.17;;;14.50;99.90;;;;;;5072133;28;20033;-83
2022/09/27 07:17:30;;;;;;;8.85;2.90;;;14.70;99.90;;;;;;5071715;28;20468;-83
2022/09/27 07:19:55;;;;;;;14.77;3.22;;;14.80;99.90;;;;;;5071903;28;20469;-83
2022/09/27 07:22:21;;;;;;;10.30;3.05;;;14.80;99.90;;;;;;5071775;28;20105;-83
2022/09/27 07:24:47;;;;;;;9.23;2.70;;;15.00;99.90;;;;;;5071333;28;20435;-83
2022/09/27 07:27:14;;;;;;;9.25;2.63;;;15.00;99.90;;;;;;5072141;28;20028;-83
2022/09/27 07:29:39;;;;;;;10.15;2.38;;;15.30;99.90;;;;;;5071594;28;20064;-82
2022/09/27 07:32:06;;;;;;;8.35;2.47;;;15.50;99.90;;;;;;5071206;28;20068;-83
2022/09/27 07:34:35;;;;;;;10.93;2.97;;;15.70;99.90;;;;;;5071581;28;20454;-83
2022/09/27 07:37:02;;;;;;;9.18;2.78;;;15.80;99.90;;;;;;5071523;28;20031;-83
2022/09/27 07:39:28;;;;;;;8.32;3.10;;;16.10;99.90;;;;;;5071656;28;20082;-82
2022/09/27 07:41:54;;;;;;;12.02;2.40;;;16.40;99.90;;;;;;5071735;28;20111;-83
2022/09/27 07:44:19;;;;;;;9.75;3.20;;;16.40;99.90;;;;;;5072268;28;20051;-83
2022/09/27 07:46:45;;;;;;;7.43;2.88;;;16.50;99.90;;;;;;5071884;28;20025;-82
2022/09/27 07:49:11;;;;;;;9.40;3.13;;;16.60;99.90;;;;;;5071762;28;20039;-83
2022/09/27 07:51:36;;;;;;;12.02;3.50;;;16.60;99.90;;;;;;5071991;28;20111;-82
2022/09/27 07:54:02;;;;;;;19.38;6.75;;;16.70;99.90;;;;;;5075343;28;20103;-83
2022/09/27 07:56:28;;;;;;;14.25;4.45;;;16.80;99.90;;;;;;5075177;28;20028;-82
2022/09/27 07:58:54;;;;;;;10.48;3.33;;;16.70;99.90;;;;;;5074836;28;20426;-83
2022/09/27 08:01:20;;;;;;;12.20;5.50;;;17.00;99.90;;;;;;5074942;28;20104;-83
2022/09/27 08:03:46;;;;;;;8.90;2.30;;;17.30;99.90;;;;;;5074905;28;20032;-83
2022/09/27 08:06:11;;;;;;;8.52;2.38;;;17.00;99.90;;;;;;5074483;28;20082;-83
2022/09/27 08:08:37;;;;;;;9.00;2.92;;;17.00;99.90;;;;;;5074780;28;20028;-83
2022/09/27 08:11:17;;;;;;;10.43;2.65;;;17.10;99.90;;;;;;5074898;28;20052;-83
2022/09/27 08:13:44;;;;;;;9.18;2.22;;;17.10;99.90;;;;;;5074849;28;20037;-83
2022/09/27 08:16:10;;;;;;;9.48;2.85;;;17.20;99.90;;;;;;5074745;28;20024;-82
2022/09/27 08:18:36;;;;;;;7.65;2.35;;;17.20;99.90;;;;;;5074660;28;20028;-83
2022/09/27 08:21:03;;;;;;;7.63;2.25;;;17.40;99.90;;;;;;5074175;28;20100;-83
2022/09/27 08:23:29;;;;;;;9.27;2.60;;;17.70;99.90;;;;;;5074593;28;20219;-83
2022/09/27 08:25:57;;;;;;;7.97;2.00;;;17.90;99.90;;;;;;5074802;28;20025;-83
2022/09/27 08:28:23;;;;;;;6.53;2.20;;;18.30;99.90;;;;;;5074374;28;20039;-82
2022/09/27 08:30:49;;;;;;;7.70;2.10;;;18.70;99.90;;;;;;5074071;28;20021;-83
2022/09/27 08:33:15;;;;;;;7.18;2.38;;;18.70;99.90;;;;;;5074372;28;20033;-83
2022/09/27 08:35:41;;;;;;;6.85;2.03;;;19.10;99.90;;;;;;5074279;28;20350;-83
2022/09/27 08:38:09;;;;;;;9.70;2.25;;;19.30;99.90;;;;;;5074362;28;20473;-83
2022/09/27 08:40:34;;;;;;;6.53;2.25;;;19.30;99.90;;;;;;5074170;28;20012;-83
2022/09/27 08:43:25;;;;;;;7.78;2.75;;;22.30;99.90;;;;;;5073668;28;20307;-83
2022/09/27 08:46:01;;;;;;;7.13;1.95;;;25.50;99.90;;;;;;5074384;28;20020;-83
2022/09/27 08:48:28;;;;;;;5.30;2.20;;;25.70;99.90;;;;;;5073936;28;20037;-83
2022/09/27 08:50:55;;;;;;;9.20;2.58;;;21.90;99.90;;;;;;5073555;28;20029;-83
2022/09/27 08:53:24;;;;;;;7.97;2.30;;;19.60;99.90;;;;;;5073956;28;20140;-83
2022/09/27 08:55:53;;;;;;;8.30;2.13;;;20.40;99.90;;;;;;5073931;28;20044;-83
2022/09/27 08:58:39;;;;;;;10.73;2.17;;;26.40;99.90;;;;;;5073789;28;20503;-83
2022/09/27 09:01:10;;;;;;;8.25;2.47;;;32.10;99.90;;;;;;5073480;28;20031;-83
2022/09/27 09:03:51;;;;;;;6.05;2.40;;;32.80;99.90;;;;;;5072758;28;20025;-83
2022/09/27 09:06:39;;;;;;;7.07;2.00;;;32.90;99.90;;;;;;5072775;28;20036;-83
2022/09/27 09:09:18;;;;;;;5.82;2.25;;;32.70;99.90;;;;;;5072181;28;20387;-83
2022/09/27 09:14:55;;;;;;;5.82;2.20;;;32.80;99.90;;;;;;5073289;28;20102;-83
2022/09/27 09:17:35;;;;;;;7.72;2.28;;;27.00;99.90;;;;;;5058465;28;20024;-83
2022/09/27 09:20:11;;;;;;;6.90;2.30;;;23.80;99.90;;;;;;5073261;28;20043;-83
2022/09/27 09:22:58;;;;;;;9.05;2.33;;;25.50;99.90;;;;;;5073447;28;20090;-83
2022/09/27 09:25:30;;;;;;;9.43;2.25;;;31.90;99.90;;;;;;5072349;28;20032;-84
2022/09/27 09:28:13;;;;;;;5.07;2.28;;;30.40;99.90;;;;;;5072780;28;20024;-83
2022/09/27 09:30:57;;;;;;;6.90;2.30;;;33.80;99.90;;;;;;5073386;28;20027;-82
2022/09/27 09:33:34;;;;;;;4.30;1.73;;;34.90;99.90;;;;;;5072936;28;20052;-85
2022/09/27 09:36:19;;;;;;;6.60;2.03;;;29.40;99.90;;;;;;5073233;28;20024;-85
2022/09/27 09:38:54;;;;;;;5.55;1.80;;;30.30;99.90;;;;;;5072957;28;20036;-84
2022/09/27 09:41:42;;;;;;;7.57;2.05;;;28.70;99.90;;;;;;5071968;28;20020;-84
2022/09/27 09:44:13;;;;;;;4.65;1.88;;;24.40;99.90;;;;;;5052079;28;20037;-86
2022/09/27 09:46:44;;;;;;;6.28;2.13;;;22.10;99.90;;;;;;5070496;28;20021;-85
2022/09/27 09:49:38;;;;;;;7.03;2.30;;;26.90;99.90;;;;;;5072455;28;20107;-85
2022/09/27 09:52:10;;;;;;;6.38;2.17;;;26.80;99.90;;;;;;5066820;28;20021;-84
2022/09/27 09:55:05;;;;;;;6.57;2.17;;;26.70;99.90;;;;;;5066415;28;20032;-84
2022/09/27 09:57:48;;;;;;;4.28;1.75;;;23.30;99.90;;;;;;5066794;28;20032;-84
2022/09/27 10:00:17;;;;;;;4.13;2.00;;;25.40;99.90;;;;;;5066181;28;20024;-85
2022/09/27 10:02:45;;;;;;;4.45;2.03;;;31.00;99.90;;;;;;5066127;28;20438;-84
2022/09/27 10:05:29;;;;;;;4.13;1.65;;;34.90;99.90;;;;;;5067081;28;20035;-85
2022/09/27 10:07:59;;;;;;;5.18;2.10;;;36.30;99.90;;;;;;5067244;28;20052;-84
2022/09/27 10:10:26;;;;;;;4.28;1.77;;;33.50;99.90;;;;;;5066064;28;20040;-85
2022/09/27 10:12:51;;;;;;;4.18;1.60;;;29.50;99.90;;;;;;5072087;28;20497;-83
2022/09/27 10:15:23;;;;;;;3.95;1.70;;;34.20;99.90;;;;;;5069619;28;20063;-84
2022/09/27 10:17:52;;;;;;;6.85;2.22;;;35.70;99.90;;;;;;5071806;28;20028;-84
2022/09/27 10:20:37;;;;;;;5.07;2.03;;;35.90;99.90;;;;;;5070758;28;20021;-91
2022/09/27 10:23:12;;;;;;;7.68;1.88;;;37.00;99.90;;;;;;5072486;28;20035;-83
2022/09/27 10:25:59;;;;;;;7.28;1.80;;;36.80;99.90;;;;;;5071762;28;20028;-83
2022/09/27 10:28:32;;;;;;;6.82;1.85;;;36.20;99.90;;;;;;5071793;28;20031;-81
2022/09/27 10:31:10;;;;;;;3.33;1.60;;;36.90;99.90;;;;;;5071304;28;20499;-81
2022/09/27 10:34:04;;;;;;;5.07;1.52;;;37.60;99.90;;;;;;5072096;28;20488;-81
2022/09/27 10:36:33;;;;;;;4.38;1.42;;;40.50;99.90;;;;;;5071346;28;20120;-81
2022/09/27 10:39:05;;;;;;;5.70;1.77;;;33.50;99.90;;;;;;5072095;28;20059;-81
2022/09/27 10:41:41;;;;;;;3.60;1.42;;;27.30;99.90;;;;;;5072109;28;20112;-81
2022/09/27 10:44:16;;;;;;;4.63;1.80;;;24.50;99.90;;;;;;5072197;28;20024;-81
2022/09/27 10:46:44;;;;;;;6.32;1.65;;;23.60;99.90;;;;;;5072114;28;20028;-81
2022/09/27 10:49:20;;;;;;;5.57;1.60;;;23.40;99.90;;;;;;5071980;28;20052;-81
2022/09/27 10:51:50;;;;;;;4.22;1.63;;;23.10;99.90;;;;;;5071973;28;20032;-80
2022/09/27 10:54:27;;;;;;;2.72;1.40;;;24.30;99.90;;;;;;5071792;28;20120;-81
2022/09/27 10:57:03;;;;;;;5.88;1.67;;;33.20;99.90;;;;;;5072337;28;20361;-81
2022/09/27 10:59:32;;;;;;;4.45;1.60;;;37.20;99.90;;;;;;5072323;28;20032;-81
2022/09/27 11:01:58;;;;;;;5.68;1.60;;;30.40;99.90;;;;;;5071355;28;20063;-81
2022/09/27 11:04:33;;;;;;;5.50;1.75;;;25.90;99.90;;;;;;5072419;28;20453;-81
2022/09/27 11:07:22;;;;;;;6.00;1.80;;;23.80;99.90;;;;;;5071937;28;20442;-81
2022/09/27 11:09:54;;;;;;;5.55;1.88;;;22.40;99.90;;;;;;5071819;28;20043;-81
2022/09/27 11:12:21;;;;;;;4.90;1.48;;;21.60;99.90;;;;;;5071824;28;20060;-81
2022/09/27 11:15:16;;;;;;;3.78;1.48;;;20.70;99.90;;;;;;5070244;28;20553;-81
2022/09/27 11:18:10;;;;;;;7.07;1.80;;;20.30;99.90;;;;;;5071897;28;20029;-80
2022/09/27 11:20:58;;;;;;;6.22;1.63;;;20.10;99.90;;;;;;5071858;28;20039;-81
2022/09/27 11:23:53;;;;;;;5.28;1.75;;;20.00;99.90;;;;;;5071800;28;20056;-80
2022/09/27 11:26:48;;;;;;;4.50;1.77;;;19.50;99.90;;;;;;5031319;28;20041;-81
2022/09/27 11:29:45;;;;;;;5.13;1.63;;;19.50;99.90;;;;;;5033557;28;20030;-80
2022/09/27 11:32:29;;;;;;;3.03;1.38;;;19.10;99.90;;;;;;5033218;28;20103;-80
2022/09/27 11:35:27;;;;;;;6.97;1.58;;;19.00;99.90;;;;;;5033310;28;20044;-80
2022/09/27 11:37:55;;;;;;;4.70;1.50;;;18.90;99.90;;;;;;4993628;28;20203;-80
2022/09/27 11:40:57;;;;;;;4.43;1.20;;;18.60;99.90;;;;;;4994013;28;20395;-80
2022/09/27 11:43:28;;;;;;;4.97;1.50;;;18.50;99.90;;;;;;4954435;28;20036;-80
2022/09/27 11:46:14;;;;;;;7.20;1.67;;;18.40;99.90;;;;;;4955295;29;20087;-80
2022/09/27 11:49:11;;;;;;;4.35;1.48;;;18.40;99.90;;;;;;4954840;28;20043;-80
2022/09/27 11:52:10;;;;;;;3.60;1.48;;;18.00;99.90;;;;;;4954917;29;20408;-80
2022/09/27 11:55:02;;;;;;;5.13;1.33;;;17.90;99.90;;;;;;4954961;28;20054;-80
2022/09/27 11:57:34;;;;;;;5.63;1.30;;;17.80;99.90;;;;;;4954927;29;20525;-80
2022/09/27 12:00:23;;;;;;;2.10;1.13;;;18.00;99.90;;;;;;4949474;29;20038;-81
2022/09/27 12:03:19;;;;;;;3.30;1.35;;;18.00;99.90;;;;;;4936896;29;20051;-80
2022/09/27 12:05:52;;;;;;;4.43;1.50;;;18.10;99.90;;;;;;4954538;29;20034;-80
2022/09/27 12:08:35;;;;;;;3.25;1.20;;;18.50;99.90;;;;;;4954559;29;20385;-80
2022/09/27 12:11:44;;;;;;;4.43;1.42;;;18.60;99.90;;;;;;4954322;29;20046;-80
2022/09/27 12:14:16;;;;;;;3.75;1.25;;;18.60;99.90;;;;;;4961625;28;20045;-80
2022/09/27 12:16:44;;;;;;;5.90;1.20;;;18.90;99.90;;;;;;5032460;28;20099;-80
2022/09/27 12:19:26;;;;;;;3.50;1.30;;;19.50;99.90;;;;;;5038071;28;20044;-80
2022/09/27 12:21:53;;;;;;;4.20;1.50;;;21.40;99.90;;;;;;5054598;28;20508;-80
2022/09/27 12:24:23;;;;;;;6.70;1.25;;;21.80;99.90;;;;;;5054863;28;20024;-80
2022/09/27 12:26:54;;;;;;;6.13;1.50;;;22.80;99.90;;;;;;5054232;28;20452;-81
2022/09/27 12:29:32;;;;;;;4.20;1.52;;;23.90;99.90;;;;;;5054667;28;20028;-81
2022/09/27 12:32:22;;;;;;;4.97;1.10;;;24.00;99.90;;;;;;5072515;28;20493;-81
2022/09/27 12:34:54;;;;;;;3.80;1.20;;;26.50;99.90;;;;;;5074398;28;20045;-81
2022/09/27 12:37:44;;;;;;;4.38;1.30;;;28.60;99.90;;;;;;5074034;28;20036;-81
2022/09/27 12:40:26;;;;;;;7.28;1.65;;;30.30;99.90;;;;;;5073979;28;20052;-81
2022/09/27 12:42:59;;;;;;;2.05;1.15;;;28.30;99.90;;;;;;5074351;28;20048;-80
2022/09/27 12:45:51;;;;;;;3.22;1.35;;;26.10;99.90;;;;;;5074249;28;20432;-81
2022/09/27 12:48:35;;;;;;;3.17;1.23;;;26.00;99.90;;;;;;5074170;28;20025;-81
2022/09/27 12:51:19;;;;;;;2.35;1.23;;;26.30;99.90;;;;;;5073950;28;20020;-81
2022/09/27 12:53:52;;;;;;;3.17;0.98;;;27.20;99.90;;;;;;5074068;28;20095;-81
2022/09/27 12:56:35;;;;;;;4.97;1.25;;;25.70;99.90;;;;;;5074082;28;20037;-81
2022/09/27 12:59:09;;;;;;;4.60;1.10;;;24.90;99.90;;;;;;5074134;28;20384;-80
2022/09/27 13:01:59;;;;;;;4.10;1.38;;;29.10;99.90;;;;;;5073703;28;20167;-81
2022/09/27 13:04:33;;;;;;;3.83;1.10;;;28.80;99.90;;;;;;5073689;28;20496;-81
2022/09/27 13:07:27;;;;;;;4.82;1.20;;;29.20;99.90;;;;;;5073847;28;20036;-81
2022/09/27 13:10:10;;;;;;;2.85;1.10;;;27.10;99.90;;;;;;5073724;28;20492;-81
2022/09/27 13:12:37;;;;;;;4.78;1.38;;;29.60;99.90;;;;;;5073626;28;20441;-81
2022/09/27 13:15:05;;;;;;;4.10;1.45;;;27.70;99.90;;;;;;5073798;28;20032;-81
2022/09/27 13:17:39;;;;;;;4.05;1.15;;;26.90;99.90;;;;;;5073662;28;20020;-81
2022/09/27 13:20:34;;;;;;;3.85;1.20;;;27.00;99.90;;;;;;5073597;28;20031;-81
2022/09/27 13:23:19;;;;;;;3.83;1.25;;;27.10;99.90;;;;;;5073822;28;20032;-80